createdAt,value
2023-06-13T00:00:49.028Z,43.53
2023-06-13T00:01:49.070Z,43.53
2023-06-13T00:02:49.170Z,43.54
2023-06-13T00:03:49.339Z,43.55
2023-06-13T00:04:49.372Z,43.55
2023-06-13T00:05:49.316Z,43.51
2023-06-13T00:06:49.406Z,43.55
2023-06-13T00:07:49.465Z,43.52
2023-06-13T00:08:49.498Z,43.53
2023-06-13T00:09:49.565Z,43.55
2023-06-13T00:10:49.711Z,43.52
2023-06-13T00:11:49.677Z,43.52
2023-06-13T00:12:49.814Z,43.48
2023-06-13T00:13:49.809Z,43.53
2023-06-13T00:14:50.854Z,43.54
2023-06-13T00:15:49.926Z,43.50
2023-06-13T00:16:50.046Z,43.58
2023-06-13T00:17:50.113Z,43.57
2023-06-13T00:18:50.207Z,43.52
2023-06-13T00:19:50.184Z,43.53
2023-06-13T00:20:50.256Z,43.50
2023-06-13T00:21:50.312Z,43.51
2023-06-13T00:22:50.373Z,43.50
2023-06-13T00:23:50.487Z,43.51
2023-06-13T00:24:50.549Z,43.52
2023-06-13T00:25:50.563Z,43.52
2023-06-13T00:26:50.608Z,43.45
2023-06-13T00:27:50.657Z,43.48
2023-06-13T00:28:50.704Z,43.48
2023-06-13T00:29:50.767Z,43.50
2023-06-13T00:30:50.869Z,43.51
2023-06-13T00:31:50.883Z,43.47
2023-06-13T00:32:51.001Z,43.46
2023-06-13T00:33:51.004Z,43.51
2023-06-13T00:34:51.072Z,43.47
2023-06-13T00:35:51.138Z,43.47
2023-06-13T00:36:51.184Z,43.49
2023-06-13T00:37:51.246Z,43.47
2023-06-13T00:38:51.325Z,43.49
2023-06-13T00:39:51.377Z,43.49
2023-06-13T00:40:51.433Z,43.44
2023-06-13T00:41:51.491Z,43.49
2023-06-13T00:42:51.603Z,43.46
2023-06-13T00:43:51.612Z,43.48
2023-06-13T00:44:51.639Z,43.48
2023-06-13T00:45:51.684Z,43.47
2023-06-13T00:46:51.757Z,43.47
2023-06-13T00:47:51.816Z,43.48
2023-06-13T00:48:51.938Z,43.46
2023-06-13T00:49:51.916Z,43.50
2023-06-13T00:50:52.055Z,43.47
2023-06-13T00:51:52.043Z,43.45
2023-06-13T00:52:52.104Z,43.44
2023-06-13T00:53:52.160Z,43.44
2023-06-13T00:54:52.206Z,43.43
2023-06-13T00:55:52.256Z,43.45
2023-06-13T00:56:52.314Z,43.48
2023-06-13T00:57:52.361Z,43.47
2023-06-13T00:58:52.432Z,43.43
2023-06-13T00:59:52.495Z,43.43
2023-06-13T01:00:52.523Z,43.49
2023-06-13T01:01:52.627Z,43.44
2023-06-13T01:02:52.692Z,43.46
2023-06-13T01:03:52.644Z,43.46
2023-06-13T01:04:52.820Z,43.45
2023-06-13T01:05:52.741Z,43.48
2023-06-13T01:06:52.820Z,43.42
2023-06-13T01:07:52.856Z,43.48
2023-06-13T01:08:52.907Z,43.44
2023-06-13T01:09:52.979Z,43.41
2023-06-13T01:10:53.027Z,43.43
2023-06-13T01:11:53.081Z,43.42
2023-06-13T01:12:53.135Z,43.43
2023-06-13T01:13:53.203Z,43.45
2023-06-13T01:14:53.244Z,43.42
2023-06-13T01:15:53.286Z,43.42
2023-06-13T01:16:53.366Z,43.42
2023-06-13T01:17:53.459Z,43.40
2023-06-13T01:18:53.431Z,43.40
2023-06-13T01:19:53.484Z,43.43
2023-06-13T01:20:53.555Z,43.43
2023-06-13T01:21:53.620Z,43.41
2023-06-13T01:22:53.807Z,43.41
2023-06-13T01:23:53.814Z,43.40
2023-06-13T01:24:53.815Z,43.39
2023-06-13T01:25:53.993Z,43.41
2023-06-13T01:26:53.947Z,43.39
2023-06-13T01:27:53.982Z,43.40
2023-06-13T01:28:54.026Z,43.40
2023-06-13T01:29:54.079Z,43.35
2023-06-13T01:30:54.129Z,43.35
2023-06-13T01:31:54.131Z,43.40
2023-06-13T01:32:54.274Z,43.42
2023-06-13T01:33:54.174Z,43.38
2023-06-13T01:34:54.215Z,43.37
2023-06-13T01:35:54.256Z,43.38
2023-06-13T01:36:54.316Z,43.37
2023-06-13T01:37:54.357Z,43.35
2023-06-13T01:38:54.394Z,43.38
2023-06-13T01:39:54.412Z,43.35
2023-06-13T01:40:54.429Z,43.34
2023-06-13T01:41:54.462Z,43.35
2023-06-13T01:42:54.461Z,43.37
2023-06-13T01:43:54.460Z,43.37
2023-06-13T01:44:54.473Z,43.35
2023-06-13T01:45:54.479Z,43.34
2023-06-13T01:46:54.469Z,43.35
2023-06-13T01:47:54.593Z,43.36
2023-06-13T01:48:54.560Z,43.33
2023-06-13T01:49:54.670Z,43.37
2023-06-13T01:50:54.612Z,43.34
2023-06-13T01:51:54.629Z,43.34
2023-06-13T01:52:54.653Z,43.37
2023-06-13T01:53:54.669Z,43.34
2023-06-13T01:54:54.698Z,43.35
2023-06-13T01:55:55.331Z,43.34
2023-06-13T01:56:54.710Z,43.37
2023-06-13T01:57:54.722Z,43.31
2023-06-13T01:58:54.749Z,43.29
2023-06-13T01:59:54.815Z,43.27
2023-06-13T02:00:54.839Z,43.34
2023-06-13T02:01:54.916Z,43.35
2023-06-13T02:02:55.039Z,43.31
2023-06-13T02:03:55.013Z,43.30
2023-06-13T02:04:54.872Z,43.30
2023-06-13T02:05:54.876Z,43.28
2023-06-13T02:06:54.882Z,43.32
2023-06-13T02:07:54.908Z,43.30
2023-06-13T02:08:54.913Z,43.33
2023-06-13T02:09:54.928Z,43.31
2023-06-13T02:10:54.945Z,43.30
2023-06-13T02:11:54.936Z,43.30
2023-06-13T02:12:54.959Z,43.30
2023-06-13T02:13:54.980Z,43.31
2023-06-13T02:14:55.050Z,43.30
2023-06-13T02:15:55.025Z,43.26
2023-06-13T02:16:55.224Z,43.27
2023-06-13T02:17:55.119Z,43.29
2023-06-13T02:18:55.116Z,43.31
2023-06-13T02:19:55.110Z,43.27
2023-06-13T02:20:55.832Z,43.28
2023-06-13T02:21:55.108Z,43.27
2023-06-13T02:22:55.130Z,43.26
2023-06-13T02:23:55.178Z,43.28
2023-06-13T02:24:55.165Z,43.27
2023-06-13T02:25:55.182Z,43.26
2023-06-13T02:26:55.192Z,43.25
2023-06-13T02:27:55.206Z,43.25
2023-06-13T02:28:55.214Z,43.25
2023-06-13T02:29:55.332Z,43.26
2023-06-13T02:30:55.273Z,43.26
2023-06-13T02:31:55.349Z,43.19
2023-06-13T02:32:55.345Z,43.25
2023-06-13T02:33:55.273Z,43.21
2023-06-13T02:34:55.300Z,43.26
2023-06-13T02:35:55.301Z,43.21
2023-06-13T02:36:55.312Z,43.25
2023-06-13T02:37:55.317Z,43.22
2023-06-13T02:38:55.339Z,43.28
2023-06-13T02:39:55.350Z,43.24
2023-06-13T02:40:55.343Z,43.24
2023-06-13T02:41:55.358Z,43.24
2023-06-13T02:42:55.372Z,43.24
2023-06-13T02:43:55.382Z,43.23
2023-06-13T02:44:55.406Z,43.23
2023-06-13T02:45:55.417Z,43.22
2023-06-13T02:46:55.445Z,43.25
2023-06-13T02:47:55.537Z,43.23
2023-06-13T02:48:55.577Z,43.23
2023-06-13T02:49:55.531Z,43.18
2023-06-13T02:50:55.509Z,43.21
2023-06-13T02:51:56.334Z,43.22
2023-06-13T02:52:55.575Z,43.23
2023-06-13T02:53:55.560Z,43.22
2023-06-13T02:54:55.566Z,43.18
2023-06-13T02:55:55.598Z,43.21
2023-06-13T02:56:55.594Z,43.19
2023-06-13T02:57:55.610Z,43.24
2023-06-13T02:58:55.622Z,43.23
2023-06-13T02:59:55.723Z,43.23
2023-06-13T03:00:55.674Z,43.20
2023-06-13T03:01:55.670Z,43.14
2023-06-13T03:02:55.761Z,43.19
2023-06-13T03:03:55.751Z,43.18
2023-06-13T03:04:55.714Z,43.18
2023-06-13T03:05:55.714Z,43.20
2023-06-13T03:06:55.733Z,43.17
2023-06-13T03:07:55.746Z,43.15
2023-06-13T03:08:55.752Z,43.15
2023-06-13T03:09:55.821Z,43.17
2023-06-13T03:10:55.749Z,43.14
2023-06-13T03:11:55.776Z,43.17
2023-06-13T03:12:55.776Z,43.18
2023-06-13T03:13:55.790Z,43.15
2023-06-13T03:14:55.805Z,43.13
2023-06-13T03:15:55.794Z,43.20
2023-06-13T03:16:55.824Z,43.16
2023-06-13T03:17:55.948Z,43.17
2023-06-13T03:18:55.832Z,43.14
2023-06-13T03:20:03.927Z,43.14
2023-06-13T03:20:56.876Z,43.17
2023-06-13T03:21:55.851Z,43.16
2023-06-13T03:22:55.941Z,43.14
2023-06-13T03:23:55.866Z,43.17
2023-06-13T03:24:55.833Z,43.12
2023-06-13T03:25:55.863Z,43.15
2023-06-13T03:26:55.862Z,43.16
2023-06-13T03:27:55.831Z,43.14
2023-06-13T03:28:55.829Z,43.14
2023-06-13T03:29:55.822Z,43.15
2023-06-13T03:30:55.911Z,43.11
2023-06-13T03:31:55.858Z,43.15
2023-06-13T03:32:55.972Z,43.12
2023-06-13T03:33:55.929Z,43.15
2023-06-13T03:34:55.947Z,43.12
2023-06-13T03:35:58.931Z,43.15
2023-06-13T03:36:56.045Z,43.07
2023-06-13T03:37:56.051Z,43.17
2023-06-13T03:38:55.987Z,43.16
2023-06-13T03:39:55.985Z,43.10
2023-06-13T03:40:55.973Z,43.10
2023-06-13T03:41:56.863Z,43.12
2023-06-13T03:42:55.970Z,43.12
2023-06-13T03:43:56.044Z,43.15
2023-06-13T03:44:55.978Z,43.10
2023-06-13T03:45:55.995Z,43.12
2023-06-13T03:46:55.971Z,43.12
2023-06-13T03:47:56.080Z,43.10
2023-06-13T03:48:56.203Z,43.13
2023-06-13T03:49:55.961Z,43.07
2023-06-13T03:50:55.955Z,43.10
2023-06-13T03:51:56.040Z,43.10
2023-06-13T03:52:55.958Z,43.09
2023-06-13T03:53:56.861Z,43.07
2023-06-13T03:54:55.949Z,43.12
2023-06-13T03:55:55.939Z,43.06
2023-06-13T03:56:55.927Z,43.09
2023-06-13T03:57:56.860Z,43.12
2023-06-13T03:58:55.931Z,43.10
2023-06-13T03:59:55.930Z,43.11
2023-06-13T04:00:56.373Z,43.05
2023-06-13T04:01:55.935Z,43.08
2023-06-13T04:02:55.950Z,43.07
2023-06-13T04:03:55.978Z,43.10
2023-06-13T04:04:55.907Z,43.07
2023-06-13T04:05:56.000Z,43.03
2023-06-13T04:06:55.903Z,43.09
2023-06-13T04:07:55.933Z,43.08
2023-06-13T04:08:56.874Z,43.07
2023-06-13T04:09:55.912Z,43.08
2023-06-13T04:10:55.911Z,43.08
2023-06-13T04:11:55.908Z,43.08
2023-06-13T04:12:55.926Z,43.07
2023-06-13T04:13:55.922Z,43.07
2023-06-13T04:14:55.931Z,43.07
2023-06-13T04:15:55.928Z,43.06
2023-06-13T04:16:55.968Z,43.05
2023-06-13T04:17:55.986Z,43.06
2023-06-13T04:18:55.993Z,43.10
2023-06-13T04:19:55.933Z,43.05
2023-06-13T04:20:55.940Z,43.04
2023-06-13T04:21:55.934Z,43.09
2023-06-13T04:22:55.939Z,43.05
2023-06-13T04:23:56.088Z,43.06
2023-06-13T04:24:55.945Z,43.03
2023-06-13T04:25:56.886Z,43.07
2023-06-13T04:26:55.947Z,43.05
2023-06-13T04:27:55.953Z,43.03
2023-06-13T04:28:55.947Z,43.00
2023-06-13T04:29:55.962Z,43.05
2023-06-13T04:30:55.974Z,43.03
2023-06-13T04:31:56.048Z,43.05
2023-06-13T04:32:56.140Z,42.99
2023-06-13T04:33:56.109Z,42.96
2023-06-13T04:34:56.127Z,42.94
2023-06-13T04:35:56.159Z,42.97
2023-06-13T04:36:56.190Z,42.99
2023-06-13T04:37:56.229Z,43.01
2023-06-13T04:38:56.244Z,43.00
2023-06-13T04:39:56.270Z,42.96
2023-06-13T04:40:56.316Z,42.97
2023-06-13T04:41:56.494Z,42.97
2023-06-13T04:42:56.378Z,42.97
2023-06-13T04:43:56.483Z,42.95
2023-06-13T04:44:56.464Z,42.96
2023-06-13T04:45:56.589Z,42.94
2023-06-13T04:46:56.533Z,42.94
2023-06-13T04:47:58.361Z,42.93
2023-06-13T04:48:56.682Z,42.89
2023-06-13T04:49:56.643Z,42.87
2023-06-13T04:50:56.669Z,42.87
2023-06-13T04:51:56.727Z,42.88
2023-06-13T04:52:56.760Z,42.87
2023-06-13T04:53:56.786Z,42.91
2023-06-13T04:54:56.825Z,42.85
2023-06-13T04:55:56.855Z,42.88
2023-06-13T04:56:56.880Z,42.88
2023-06-13T04:57:56.896Z,42.86
2023-06-13T04:58:57.143Z,42.83
2023-06-13T04:59:56.961Z,42.87
2023-06-13T05:00:56.995Z,42.83
2023-06-13T05:01:57.002Z,42.83
2023-06-13T05:02:57.296Z,42.83
2023-06-13T05:03:59.062Z,42.83
2023-06-13T05:04:57.131Z,42.79
2023-06-13T05:05:57.094Z,42.86
2023-06-13T05:06:57.104Z,42.81
2023-06-13T05:07:57.219Z,42.79
2023-06-13T05:08:57.101Z,42.82
2023-06-13T05:09:57.107Z,42.81
2023-06-13T05:10:57.101Z,42.78
2023-06-13T05:11:57.122Z,42.77
2023-06-13T05:12:57.106Z,42.83
2023-06-13T05:13:57.122Z,42.79
2023-06-13T05:14:57.121Z,42.77
2023-06-13T05:15:57.132Z,42.77
2023-06-13T05:16:57.113Z,42.74
2023-06-13T05:17:59.581Z,42.77
2023-06-13T05:18:57.115Z,42.78
2023-06-13T05:19:57.124Z,42.83
2023-06-13T05:20:57.110Z,42.93
2023-06-13T05:21:57.137Z,43.10
2023-06-13T05:22:57.116Z,43.17
2023-06-13T05:23:57.160Z,43.38
2023-06-13T05:24:57.124Z,43.42
2023-06-13T05:25:57.125Z,43.90
2023-06-13T05:26:57.102Z,43.88
2023-06-13T05:27:57.169Z,44.65
2023-06-13T05:28:57.092Z,44.27
2023-06-13T05:29:57.123Z,44.12
2023-06-13T05:30:57.125Z,44.30
2023-06-13T05:31:57.099Z,44.20
2023-06-13T05:32:57.132Z,44.42
2023-06-13T05:33:57.076Z,44.48
2023-06-13T05:34:57.079Z,44.54
2023-06-13T05:35:58.524Z,44.65
2023-06-13T05:36:57.906Z,44.73
2023-06-13T05:37:57.904Z,44.81
2023-06-13T05:38:57.045Z,44.91
2023-06-13T05:39:57.038Z,45.01
2023-06-13T05:40:57.035Z,45.10
2023-06-13T05:41:57.018Z,45.22
2023-06-13T05:42:57.014Z,45.31
2023-06-13T05:43:57.010Z,45.39
2023-06-13T05:44:56.998Z,45.46
2023-06-13T05:45:56.981Z,45.62
2023-06-13T05:46:56.972Z,45.70
2023-06-13T05:47:57.834Z,45.74
2023-06-13T05:48:56.978Z,45.83
2023-06-13T05:49:56.966Z,45.87
2023-06-13T05:50:56.993Z,45.95
2023-06-13T05:51:57.000Z,46.06
2023-06-13T05:52:57.007Z,46.13
2023-06-13T05:53:57.029Z,46.23
2023-06-13T05:54:57.042Z,46.19
2023-06-13T05:55:57.053Z,46.29
2023-06-13T05:56:57.092Z,46.36
2023-06-13T05:57:57.080Z,46.39
2023-06-13T05:58:57.099Z,46.41
2023-06-13T05:59:57.094Z,46.27
2023-06-13T06:00:57.903Z,46.32
2023-06-13T06:01:57.207Z,46.38
2023-06-13T06:02:57.166Z,46.40
2023-06-13T06:03:57.170Z,46.55
2023-06-13T06:04:57.128Z,46.53
2023-06-13T06:05:57.122Z,46.74
2023-06-13T06:06:57.127Z,46.78
2023-06-13T06:07:57.156Z,46.70
2023-06-13T06:08:57.140Z,46.83
2023-06-13T06:09:57.147Z,46.84
2023-06-13T06:10:57.198Z,46.94
2023-06-13T06:11:57.117Z,47.05
2023-06-13T06:12:57.106Z,47.17
2023-06-13T06:13:57.099Z,47.27
2023-06-13T06:14:57.111Z,47.30
2023-06-13T06:15:57.849Z,47.40
2023-06-13T06:16:57.097Z,47.29
2023-06-13T06:17:57.170Z,47.45
2023-06-13T06:18:57.319Z,47.59
2023-06-13T06:19:57.161Z,47.67
2023-06-13T06:20:57.068Z,47.83
2023-06-13T06:21:57.056Z,47.84
2023-06-13T06:22:57.046Z,47.87
2023-06-13T06:23:57.066Z,47.94
2023-06-13T06:24:57.047Z,47.81
2023-06-13T06:25:57.025Z,47.69
2023-06-13T06:26:57.067Z,47.05
2023-06-13T06:27:57.013Z,42.84
2023-06-13T06:28:57.029Z,41.56
2023-06-13T06:29:57.046Z,40.81
2023-06-13T06:30:57.155Z,40.39
2023-06-13T06:31:57.136Z,39.80
2023-06-13T06:32:57.222Z,39.25
2023-06-13T06:33:57.213Z,38.76
2023-06-13T06:34:57.273Z,38.31
2023-06-13T06:35:57.334Z,37.81
2023-06-13T06:36:57.379Z,37.76
2023-06-13T06:37:57.450Z,37.62
2023-06-13T06:38:57.503Z,37.38
2023-06-13T06:39:57.575Z,37.19
2023-06-13T06:40:57.671Z,37.07
2023-06-13T06:41:57.713Z,36.95
2023-06-13T06:42:57.782Z,36.77
2023-06-13T06:43:57.703Z,36.66
2023-06-13T06:44:57.822Z,36.48
2023-06-13T06:45:57.793Z,36.27
2023-06-13T06:46:58.520Z,36.17
2023-06-13T06:47:57.897Z,36.16
2023-06-13T06:48:57.753Z,36.14
2023-06-13T06:49:57.751Z,36.15
2023-06-13T06:50:57.776Z,36.09
2023-06-13T06:51:57.751Z,36.04
2023-06-13T06:52:57.758Z,35.85
2023-06-13T06:53:57.758Z,35.79
2023-06-13T06:54:57.773Z,35.60
2023-06-13T06:55:57.774Z,35.54
2023-06-13T06:56:57.769Z,35.66
2023-06-13T06:57:57.791Z,35.61
2023-06-13T06:58:57.793Z,35.54
2023-06-13T06:59:57.791Z,35.51
2023-06-13T07:00:57.849Z,35.47
2023-06-13T07:01:58.461Z,35.44
2023-06-13T07:02:57.884Z,35.47
2023-06-13T07:03:57.849Z,35.43
2023-06-13T07:04:57.842Z,35.28
2023-06-13T07:05:57.845Z,35.27
2023-06-13T07:06:57.858Z,35.17
2023-06-13T07:07:57.892Z,35.17
2023-06-13T07:08:57.894Z,35.12
2023-06-13T07:09:57.901Z,35.16
2023-06-13T07:10:57.906Z,35.03
2023-06-13T07:11:57.946Z,34.98
2023-06-13T07:12:57.946Z,34.97
2023-06-13T07:13:57.954Z,34.87
2023-06-13T07:14:57.975Z,34.88
2023-06-13T07:15:58.981Z,34.89
2023-06-13T07:16:57.988Z,34.91
2023-06-13T07:17:58.093Z,35.02
2023-06-13T07:18:58.007Z,34.90
2023-06-13T07:19:58.018Z,34.87
2023-06-13T07:20:58.033Z,35.44
2023-06-13T07:21:58.023Z,36.41
2023-06-13T07:22:58.031Z,36.62
2023-06-13T07:24:07.573Z,37.06
2023-06-13T07:24:59.155Z,37.47
2023-06-13T07:25:58.028Z,37.87
2023-06-13T07:26:58.025Z,38.13
2023-06-13T07:27:58.019Z,38.35
2023-06-13T07:28:58.015Z,38.52
2023-06-13T07:29:58.012Z,38.67
2023-06-13T07:30:57.993Z,38.86
2023-06-13T07:31:58.029Z,39.01
2023-06-13T07:33:00.106Z,39.17
2023-06-13T07:33:58.038Z,39.33
2023-06-13T07:35:04.742Z,39.49
2023-06-13T07:35:58.949Z,39.61
2023-06-13T07:36:57.942Z,39.79
2023-06-13T07:37:57.933Z,39.86
2023-06-13T07:39:00.593Z,40.05
2023-06-13T07:39:57.969Z,40.20
2023-06-13T07:40:57.899Z,40.31
2023-06-13T07:41:57.896Z,40.48
2023-06-13T07:42:57.885Z,40.58
2023-06-13T07:43:57.906Z,40.79
2023-06-13T07:44:57.919Z,40.92
2023-06-13T07:45:57.853Z,41.15
2023-06-13T07:46:57.851Z,41.39
2023-06-13T07:47:57.838Z,41.41
2023-06-13T07:48:57.900Z,41.62
2023-06-13T07:49:57.817Z,41.76
2023-06-13T07:50:57.777Z,41.92
2023-06-13T07:51:57.769Z,42.12
2023-06-13T07:52:57.776Z,42.13
2023-06-13T07:53:57.743Z,42.34
2023-06-13T07:54:57.739Z,42.51
2023-06-13T07:55:57.711Z,42.66
2023-06-13T07:56:57.705Z,42.70
2023-06-13T07:58:00.175Z,42.92
2023-06-13T07:58:57.659Z,43.06
2023-06-13T07:59:57.654Z,43.24
2023-06-13T08:00:57.645Z,43.30
2023-06-13T08:01:57.649Z,43.45
2023-06-13T08:02:57.752Z,43.62
2023-06-13T08:03:57.766Z,43.76
2023-06-13T08:04:57.658Z,43.83
2023-06-13T08:05:57.528Z,44.03
2023-06-13T08:06:57.498Z,44.11
2023-06-13T08:07:57.469Z,44.28
2023-06-13T08:08:57.457Z,44.40
2023-06-13T08:09:57.442Z,44.65
2023-06-13T08:10:57.403Z,44.68
2023-06-13T08:11:57.467Z,44.76
2023-06-13T08:12:57.373Z,44.72
2023-06-13T08:13:57.385Z,44.69
2023-06-13T08:14:57.330Z,44.52
2023-06-13T08:15:57.467Z,44.31
2023-06-13T08:16:57.282Z,44.10
2023-06-13T08:17:57.283Z,43.27
2023-06-13T08:18:57.991Z,42.67
2023-06-13T08:19:57.486Z,41.83
2023-06-13T08:20:57.202Z,42.03
2023-06-13T08:21:57.188Z,41.99
2023-06-13T08:22:57.159Z,41.73
2023-06-13T08:23:57.175Z,41.70
2023-06-13T08:24:57.470Z,41.65
2023-06-13T08:25:57.250Z,41.60
2023-06-13T08:26:57.273Z,41.42
2023-06-13T08:27:57.058Z,41.61
2023-06-13T08:28:57.042Z,41.11
2023-06-13T08:29:57.524Z,41.39
2023-06-13T08:31:10.427Z,41.52
2023-06-13T08:31:58.079Z,41.84
2023-06-13T08:32:57.028Z,42.08
2023-06-13T08:34:08.842Z,42.27
2023-06-13T08:34:57.935Z,42.43
2023-06-13T08:35:56.916Z,42.66
2023-06-13T08:36:56.938Z,42.83
2023-06-13T08:37:56.866Z,43.15
2023-06-13T08:38:56.875Z,43.55
2023-06-13T08:39:56.822Z,43.57
2023-06-13T08:40:56.843Z,43.69
2023-06-13T08:41:56.773Z,43.79
2023-06-13T08:42:56.769Z,43.92
2023-06-13T08:43:56.812Z,44.13
2023-06-13T08:44:56.853Z,44.18
2023-06-13T08:45:56.864Z,44.28
2023-06-13T08:46:56.964Z,44.27
2023-06-13T08:47:57.084Z,44.51
2023-06-13T08:48:56.976Z,44.58
2023-06-13T08:49:57.014Z,44.69
2023-06-13T08:50:57.047Z,45.20
2023-06-13T08:51:57.160Z,45.74
2023-06-13T08:52:57.138Z,46.21
2023-06-13T08:53:57.285Z,45.78
2023-06-13T08:55:34.495Z,45.85
2023-06-13T08:56:04.487Z,45.91
2023-06-13T08:56:58.332Z,45.96
2023-06-13T08:57:57.118Z,46.11
2023-06-13T08:58:57.979Z,46.32
2023-06-13T08:59:57.054Z,46.40
2023-06-13T09:00:57.078Z,46.54
2023-06-13T09:01:57.002Z,46.67
2023-06-13T09:02:57.147Z,46.79
2023-06-13T09:03:57.001Z,46.94
2023-06-13T09:04:59.172Z,47.01
2023-06-13T09:05:56.892Z,47.69
2023-06-13T09:06:56.869Z,47.47
2023-06-13T09:08:05.123Z,47.51
2023-06-13T09:08:57.822Z,47.70
2023-06-13T09:09:56.823Z,47.82
2023-06-13T09:10:56.896Z,47.86
2023-06-13T09:11:56.835Z,48.10
2023-06-13T09:12:56.713Z,48.29
2023-06-13T09:13:56.703Z,48.33
2023-06-13T09:14:56.652Z,48.41
2023-06-13T09:15:56.626Z,48.60
2023-06-13T09:16:56.676Z,48.86
2023-06-13T09:18:56.605Z,49.15
2023-06-13T09:19:56.576Z,49.45
2023-06-13T09:20:56.577Z,49.55
2023-06-13T09:21:56.584Z,49.37
2023-06-13T09:22:56.576Z,48.02
2023-06-13T09:23:56.671Z,47.60
2023-06-13T09:24:56.586Z,47.60
2023-06-13T09:25:56.639Z,47.65
2023-06-13T09:26:56.587Z,47.73
2023-06-13T09:27:58.047Z,47.79
2023-06-13T09:28:56.607Z,47.91
2023-06-13T09:29:56.619Z,48.09
2023-06-13T09:30:56.681Z,48.18
2023-06-13T09:31:56.645Z,48.37
2023-06-13T09:32:56.701Z,48.64
2023-06-13T09:33:56.682Z,48.84
2023-06-13T09:34:56.691Z,48.84
2023-06-13T09:35:58.224Z,48.91
2023-06-13T09:36:56.712Z,49.17
2023-06-13T09:37:56.648Z,49.24
2023-06-13T09:38:56.629Z,49.40
2023-06-13T09:40:16.439Z,49.57
2023-06-13T09:40:57.577Z,49.79
2023-06-13T09:41:56.542Z,49.91
2023-06-13T09:43:05.042Z,49.81
2023-06-13T09:43:57.472Z,49.92
2023-06-13T09:44:58.982Z,50.14
2023-06-13T09:45:56.709Z,50.21
2023-06-13T09:46:56.856Z,50.37
2023-06-13T09:47:56.682Z,50.46
2023-06-13T09:48:56.664Z,50.56
2023-06-13T09:49:57.207Z,50.66
2023-06-13T09:50:56.667Z,50.82
2023-06-13T09:51:56.669Z,50.86
2023-06-13T09:52:56.689Z,51.11
2023-06-13T09:53:56.681Z,51.11
2023-06-13T09:54:56.699Z,51.16
2023-06-13T09:55:56.697Z,51.31
2023-06-13T09:56:56.700Z,51.49
2023-06-13T09:58:18.288Z,51.58
2023-06-13T09:58:57.684Z,51.69
2023-06-13T09:59:56.659Z,51.83
2023-06-13T10:00:56.634Z,51.84
2023-06-13T10:01:56.612Z,51.97
2023-06-13T10:02:59.713Z,51.96
2023-06-13T10:03:57.541Z,52.44
2023-06-13T10:04:56.572Z,52.45
2023-06-13T10:05:56.476Z,52.70
2023-06-13T10:06:56.505Z,52.64
2023-06-13T10:07:56.402Z,52.65
2023-06-13T10:08:56.396Z,53.16
2023-06-13T10:09:56.342Z,53.31
2023-06-13T10:10:56.320Z,52.83
2023-06-13T10:11:56.331Z,52.70
2023-06-13T10:12:57.000Z,52.56
2023-06-13T10:13:56.225Z,52.44
2023-06-13T10:14:56.163Z,52.26
2023-06-13T10:15:56.187Z,52.10
2023-06-13T10:17:07.701Z,52.05
2023-06-13T10:17:57.141Z,51.96
2023-06-13T10:18:56.071Z,51.90
2023-06-13T10:19:56.007Z,51.84
2023-06-13T10:20:55.964Z,51.79
2023-06-13T10:21:55.989Z,51.74
2023-06-13T10:22:55.905Z,51.68
2023-06-13T10:23:55.935Z,51.64
2023-06-13T10:24:55.860Z,51.67
2023-06-13T10:25:56.736Z,51.65
2023-06-13T10:26:55.781Z,51.60
2023-06-13T10:27:56.548Z,51.60
2023-06-13T10:28:55.766Z,51.56
2023-06-13T10:29:55.675Z,51.57
2023-06-13T10:30:55.700Z,51.57
2023-06-13T10:31:55.747Z,51.51
2023-06-13T10:32:55.741Z,51.44
2023-06-13T10:33:55.721Z,51.43
2023-06-13T10:34:55.814Z,51.40
2023-06-13T10:35:55.742Z,51.33
2023-06-13T10:36:58.347Z,51.33
2023-06-13T10:37:56.726Z,51.36
2023-06-13T10:38:56.527Z,51.36
2023-06-13T10:39:55.671Z,51.30
2023-06-13T10:40:55.637Z,51.30
2023-06-13T10:41:55.620Z,51.22
2023-06-13T10:42:55.607Z,51.22
2023-06-13T10:43:55.565Z,51.24
2023-06-13T10:44:55.534Z,51.13
2023-06-13T10:45:55.541Z,51.18
2023-06-13T10:46:55.484Z,51.13
2023-06-13T10:47:55.473Z,51.14
2023-06-13T10:48:55.472Z,51.10
2023-06-13T10:49:55.495Z,51.15
2023-06-13T10:50:55.521Z,51.08
2023-06-13T10:51:55.551Z,50.99
2023-06-13T10:52:55.564Z,50.98
2023-06-13T10:53:55.603Z,50.95
2023-06-13T10:54:55.632Z,50.89
2023-06-13T10:55:55.662Z,50.89
2023-06-13T10:56:55.669Z,50.82
2023-06-13T10:57:55.720Z,50.81
2023-06-13T10:58:55.732Z,50.81
2023-06-13T10:59:55.769Z,50.78
2023-06-13T11:00:55.819Z,50.70
2023-06-13T11:01:55.831Z,50.69
2023-06-13T11:02:55.989Z,50.59
2023-06-13T11:03:55.930Z,50.59
2023-06-13T11:04:55.952Z,50.57
2023-06-13T11:05:56.042Z,50.56
2023-06-13T11:06:56.006Z,50.50
2023-06-13T11:07:56.037Z,50.45
2023-06-13T11:08:56.087Z,50.49
2023-06-13T11:09:56.181Z,50.38
2023-06-13T11:10:56.148Z,50.42
2023-06-13T11:11:56.192Z,50.34
2023-06-13T11:12:56.211Z,50.31
2023-06-13T11:13:56.279Z,50.32
2023-06-13T11:15:56.354Z,50.23
2023-06-13T11:16:56.459Z,50.22
2023-06-13T11:17:56.486Z,50.21
2023-06-13T11:18:56.481Z,50.16
2023-06-13T11:19:56.489Z,50.18
2023-06-13T11:20:56.512Z,50.16
2023-06-13T11:21:56.606Z,50.14
2023-06-13T11:22:56.580Z,50.10
2023-06-13T11:23:56.699Z,50.11
2023-06-13T11:24:56.669Z,50.07
2023-06-13T11:25:56.771Z,50.00
2023-06-13T11:26:56.743Z,49.99
2023-06-13T11:27:56.822Z,49.97
2023-06-13T11:28:56.822Z,49.92
2023-06-13T11:29:56.872Z,49.95
2023-06-13T11:30:56.902Z,49.91
2023-06-13T11:31:57.004Z,49.92
2023-06-13T11:32:57.025Z,49.88
2023-06-13T11:33:57.023Z,49.91
2023-06-13T11:34:57.044Z,49.86
2023-06-13T11:35:57.082Z,49.82
2023-06-13T11:36:57.112Z,49.82
2023-06-13T11:37:58.031Z,49.82
2023-06-13T11:38:57.213Z,49.74
2023-06-13T11:40:17.829Z,49.69
2023-06-13T11:40:58.216Z,49.73
2023-06-13T11:41:57.178Z,49.70
2023-06-13T11:42:57.137Z,49.70
2023-06-13T11:43:57.171Z,49.65
2023-06-13T11:44:57.082Z,49.67
2023-06-13T11:45:57.058Z,49.66
2023-06-13T11:46:57.062Z,49.59
2023-06-13T11:47:57.106Z,49.59
2023-06-13T11:48:57.218Z,49.55
2023-06-13T11:49:57.463Z,49.57
2023-06-13T11:50:57.012Z,49.48
2023-06-13T11:51:57.052Z,49.49
2023-06-13T11:52:57.193Z,49.45
2023-06-13T11:53:57.133Z,49.40
2023-06-13T11:54:57.176Z,49.46
2023-06-13T11:55:57.282Z,49.37
2023-06-13T11:56:57.240Z,49.38
2023-06-13T11:57:57.276Z,49.34
2023-06-13T11:58:57.329Z,49.34
2023-06-13T11:59:57.370Z,49.30
2023-06-13T12:00:57.394Z,49.30
2023-06-13T12:01:57.478Z,49.31
2023-06-13T12:02:57.776Z,49.24
2023-06-13T12:03:57.686Z,49.18
2023-06-13T12:04:57.684Z,49.22
2023-06-13T12:05:57.586Z,49.23
2023-06-13T12:06:57.619Z,49.14
2023-06-13T12:07:57.728Z,49.13
2023-06-13T12:08:57.714Z,49.15
2023-06-13T12:09:57.732Z,49.12
2023-06-13T12:10:58.042Z,49.07
2023-06-13T12:11:57.813Z,49.10
2023-06-13T12:12:57.833Z,49.02
2023-06-13T12:13:57.870Z,49.04
2023-06-13T12:14:57.904Z,48.99
2023-06-13T12:15:57.939Z,49.02
2023-06-13T12:16:58.001Z,48.90
2023-06-13T12:17:58.578Z,48.91
2023-06-13T12:18:58.035Z,48.90
2023-06-13T12:19:58.123Z,48.89
2023-06-13T12:20:58.091Z,48.84
2023-06-13T12:21:58.170Z,48.83
2023-06-13T12:22:58.171Z,48.78
2023-06-13T12:23:58.270Z,48.81
2023-06-13T12:24:58.293Z,48.78
2023-06-13T12:25:58.272Z,48.72
2023-06-13T12:26:58.298Z,48.75
2023-06-13T12:27:58.322Z,48.67
2023-06-13T12:29:00.616Z,48.71
2023-06-13T12:29:58.358Z,48.69
2023-06-13T12:30:58.408Z,48.68
2023-06-13T12:31:58.303Z,48.68
2023-06-13T12:32:58.506Z,48.65
2023-06-13T12:33:58.222Z,48.63
2023-06-13T12:34:59.314Z,48.59
2023-06-13T12:35:58.194Z,48.63
2023-06-13T12:36:58.236Z,48.57
2023-06-13T12:37:58.140Z,48.55
2023-06-13T12:38:58.112Z,48.53
2023-06-13T12:39:58.095Z,48.52
2023-06-13T12:40:59.584Z,48.55
2023-06-13T12:41:58.045Z,48.52
2023-06-13T12:42:58.045Z,48.47
2023-06-13T12:43:58.001Z,48.43
2023-06-13T12:44:58.564Z,48.42
2023-06-13T12:45:57.963Z,48.44
2023-06-13T12:46:57.949Z,48.40
2023-06-13T12:47:57.977Z,48.37
2023-06-13T12:48:57.874Z,48.41
2023-06-13T12:49:57.900Z,48.36
2023-06-13T12:50:57.948Z,48.32
2023-06-13T12:51:57.970Z,48.37
2023-06-13T12:52:58.010Z,48.31
2023-06-13T12:53:58.084Z,48.33
2023-06-13T12:54:58.066Z,48.33